Weather at Lz Ranch Airport

Public forecast

Using degrees Fahrenheit for public forecast. Weather courtesy of forecast.io.

Closest aviation weather report (METAR) to Lz Ranch Airport

Closest report is Olympia Regional Airport, 6.8 nm (12.6 km) W.

2024/06/21 16:54 (retrieved 1 hour ago)

KOLM 211654Z 02004KT 10SM CLR 23/11 A2997 RMK AO2 SLP147 T02280111

Closest aviation forecast (TAF) to Lz Ranch Airport

Closest forecast is Olympia Regional Airport, 6.8 nm (12.6 km) W.

2024/06/21 12:27 (retrieved 6 hours ago)

TAF KOLM 211124Z 2112/2212 VRB03KT P6SM SKC FM211700 36006KT P6SM SKC FM220300 VRB03KT P6SM SKC FM221000 21006KT P6SM SKC